Time;durP1;ratioP1;P1;durP2;ratioP2;P2;SDS_P1;SDS_P2;PMS_P1;PMS_P2;Temp;Humidity;BMP_temperature;BMP_pressure;BME280_temperature;BME280_humidity;BME280_pressure;Samples;Min_cycle;Max_cycle;Signal;HPM_P1;HPM_P2
2022/09/21 00:01:11;;;;;;;9.27;5.05;;;;;;;9.31;100.00;102635.38;6097375;23;20340;-80
2022/09/21 00:03:37;;;;;;;18.90;6.00;;;;;;;9.21;100.00;102633.97;6097310;23;20007;-80
2022/09/21 00:06:08;;;;;;;11.50;6.47;;;;;;;9.24;100.00;102644.19;6070999;23;20432;-79
2022/09/21 00:08:35;;;;;;;10.70;6.28;;;;;;;9.22;100.00;102645.97;6097224;23;20002;-80
2022/09/21 00:11:00;;;;;;;9.98;5.60;;;;;;;9.06;100.00;102639.56;6097054;23;20158;-80
2022/09/21 00:13:27;;;;;;;11.23;6.05;;;;;;;9.12;100.00;102645.38;6097202;23;20006;-80
2022/09/21 00:15:54;;;;;;;12.05;6.47;;;;;;;9.09;100.00;102642.06;6096994;23;20022;-79
2022/09/21 00:18:20;;;;;;;10.55;6.28;;;;;;;9.05;100.00;102640.47;6071239;23;20479;-80
2022/09/21 00:20:46;;;;;;;11.02;6.68;;;;;;;8.87;100.00;102622.03;6096949;23;20002;-79
2022/09/21 00:23:11;;;;;;;11.75;5.65;;;;;;;8.96;100.00;102636.41;6097261;23;20014;-80
2022/09/21 00:25:37;;;;;;;12.00;6.25;;;;;;;8.87;100.00;102632.34;6097224;23;20007;-79
2022/09/21 00:28:02;;;;;;;11.73;6.63;;;;;;;8.74;100.00;102615.50;6097212;23;20013;-80
2022/09/21 00:30:28;;;;;;;11.73;5.90;;;;;;;8.75;100.00;102635.25;6097032;23;20013;-79
2022/09/21 00:32:53;;;;;;;14.55;6.03;;;;;;;8.57;100.00;102615.13;6096763;23;20011;-79
2022/09/21 00:35:19;;;;;;;14.07;6.55;;;;;;;8.52;100.00;102619.53;6097034;23;20417;-80
2022/09/21 00:37:44;;;;;;;11.07;6.40;;;;;;;8.39;100.00;102610.44;6096919;23;20006;-80
2022/09/21 00:40:10;;;;;;;11.65;6.72;;;;;;;8.42;100.00;102625.78;6096984;23;20077;-79
2022/09/21 00:42:36;;;;;;;14.70;6.95;;;;;;;8.48;100.00;102639.38;6097295;23;20026;-79
2022/09/21 00:45:03;;;;;;;11.35;6.53;;;;;;;8.44;100.00;102635.16;6096989;23;20006;-80
2022/09/21 00:47:41;;;;;;;11.60;5.90;;;;;;;8.40;100.00;102636.13;6096916;23;20094;-79
2022/09/21 00:50:12;;;;;;;11.25;5.85;;;;;;;8.18;100.00;102602.34;6096830;23;20017;-80
2022/09/21 00:52:42;;;;;;;12.88;6.43;;;;;;;8.31;100.00;102620.88;6098737;23;20006;-79
2022/09/21 00:55:31;;;;;;;10.70;6.35;;;;;;;8.28;100.00;102632.09;6098913;23;20029;-78
2022/09/21 00:58:07;;;;;;;10.85;6.45;;;;;;;8.22;100.00;102624.53;6097715;23;20349;-79
2022/09/21 01:00:32;;;;;;;12.77;6.03;;;;;;;8.28;100.00;102639.84;6098768;23;20168;-80
2022/09/21 01:03:00;;;;;;;11.90;5.90;;;;;;;8.24;100.00;102633.03;6098671;23;20003;-77
2022/09/21 01:05:26;;;;;;;10.40;6.10;;;;;;;8.26;100.00;102640.75;6073791;23;20002;-79
2022/09/21 01:07:54;;;;;;;12.02;6.10;;;;;;;8.23;100.00;102645.97;6098826;23;20008;-79
2022/09/21 01:10:20;;;;;;;11.73;6.63;;;;;;;8.19;100.00;102632.34;6099006;23;20010;-79
2022/09/21 01:13:14;;;;;;;11.55;6.35;;;;;;;8.25;100.00;102639.03;6098729;23;20328;-78
2022/09/21 01:15:57;;;;;;;11.13;6.72;;;;;;;8.28;100.00;102636.41;6098571;23;20030;-79
2022/09/21 01:18:34;;;;;;;15.25;7.72;;;;;;;8.24;100.00;102633.03;6098400;23;20058;-78
2022/09/21 01:21:19;;;;;;;13.35;7.82;;;;;;;8.14;100.00;102616.13;6098796;23;20306;-79
2022/09/21 01:23:50;;;;;;;14.68;7.10;;;;;;;8.27;100.00;102643.28;6098526;23;20007;-79
2022/09/21 01:26:25;;;;;;;;;;;;;;;8.30;100.00;102640.63;6099134;23;20052;-77
2022/09/21 01:29:05;;;;;;;11.68;6.75;;;;;;;8.30;100.00;102643.22;6072947;23;19994;-76
2022/09/21 01:31:49;;;;;;;13.48;7.32;;;;;;;8.27;100.00;102639.88;6098691;23;20067;-79
2022/09/21 01:34:27;;;;;;;11.23;7.35;;;;;;;8.09;100.00;102615.41;6098245;23;20006;-77
2022/09/21 01:36:56;;;;;;;11.55;7.32;;;;;;;8.26;100.00;102643.34;6072435;23;20010;-77
2022/09/21 01:39:24;;;;;;;11.93;7.25;;;;;;;8.17;100.00;102626.38;6098630;23;20311;-77
2022/09/21 01:41:53;;;;;;;11.70;6.90;;;;;;;8.14;100.00;102625.59;6097850;23;20006;-79
2022/09/21 01:44:23;;;;;;;12.48;7.05;;;;;;;8.21;100.00;102640.84;6098128;23;20007;-80
2022/09/21 01:46:50;;;;;;;13.27;7.60;;;;;;;8.05;100.00;102619.78;6098294;23;20005;-78
2022/09/21 01:49:22;;;;;;;11.02;6.72;;;;;;;8.21;100.00;102643.44;6098060;23;20003;-77
2022/09/21 01:51:54;;;;;;;12.18;7.00;;;;;;;8.12;100.00;102632.50;6098445;23;20061;-78
2022/09/21 01:54:24;;;;;;;12.82;7.15;;;;;;;8.10;100.00;102619.69;6072657;23;20003;-79
2022/09/21 01:57:00;;;;;;;11.27;7.60;;;;;;;8.24;100.00;102645.06;6097790;23;20425;-79
2022/09/21 01:59:31;;;;;;;12.32;6.55;;;;;;;8.19;100.00;102634.91;6098228;23;20006;-78
2022/09/21 02:02:02;;;;;;;12.13;7.53;;;;;;;8.15;100.00;102625.56;6097840;23;20010;-80
2022/09/21 02:04:27;;;;;;;12.48;7.25;;;;;;;8.22;100.00;102639.97;6071339;23;20010;-78
2022/09/21 02:06:53;;;;;;;12.18;7.43;;;;;;;8.20;100.00;102644.31;6098321;23;20369;-77
2022/09/21 02:09:19;;;;;;;13.18;7.35;;;;;;;8.13;100.00;102636.78;6098044;23;20002;-77
2022/09/21 02:11:45;;;;;;;11.75;7.53;;;;;;;7.97;100.00;102614.00;6072482;23;20076;-78
2022/09/21 02:14:18;;;;;;;12.48;6.60;;;;;;;7.93;100.00;102617.50;6098021;23;20002;-79
2022/09/21 02:17:08;;;;;;;11.77;7.05;;;;;;;8.01;100.00;102636.19;6098373;23;20007;-79
2022/09/21 02:19:46;;;;;;;10.98;6.32;;;;;;;7.93;100.00;102638.06;6097679;23;20014;-80
2022/09/21 02:22:32;;;;;;;11.10;6.60;;;;;;;7.69;100.00;102602.66;6071694;23;20013;-80
2022/09/21 02:25:28;;;;;;;12.05;6.53;;;;;;;7.69;100.00;102620.66;6098032;23;20002;-78
2022/09/21 02:28:03;;;;;;;12.43;6.32;;;;;;;7.67;100.00;102638.69;6071878;23;20011;-79
2022/09/21 02:30:32;;;;;;;12.57;6.53;;;;;;;7.60;100.00;102624.25;6097936;23;20033;-79
2022/09/21 02:33:12;;;;;;;15.82;8.05;;;;;;;7.67;100.00;102638.69;6097838;23;20010;-78
2022/09/21 02:35:52;;;;;;;10.50;6.63;;;;;;;7.53;100.00;102627.00;6097501;23;20033;-77
2022/09/21 02:38:25;;;;;;;10.70;6.57;;;;;;;7.44;100.00;102625.47;6097975;23;20012;-77
2022/09/21 02:40:50;;;;;;;11.88;6.88;;;;;;;7.40;100.00;102637.53;6097603;23;20451;-79
2022/09/21 02:43:29;;;;;;;10.18;6.70;;;;;;;7.18;100.00;102613.16;6097527;23;20007;-79
2022/09/21 02:45:59;;;;;;;16.77;7.32;;;;;;;7.27;100.00;102641.22;6097644;23;19998;-79
2022/09/21 02:48:36;;;;;;;10.32;6.53;;;;;;;7.19;100.00;102640.53;6097609;23;20014;-80
2022/09/21 02:51:10;;;;;;;11.15;6.28;;;;;;;7.10;100.00;102633.88;6097500;23;20014;-80
2022/09/21 02:53:38;;;;;;;10.05;6.35;;;;;;;7.06;100.00;102632.22;6097542;23;20006;-79
2022/09/21 02:56:06;;;;;;;10.63;7.32;;;;;;;7.07;100.00;102639.03;6097582;23;20376;-79
2022/09/21 02:58:38;;;;;;;10.10;7.22;;;;;;;6.97;100.00;102627.25;6097642;23;20065;-79
2022/09/21 03:01:09;;;;;;;14.82;7.25;;;;;;;6.59;100.00;102586.91;6097638;23;20537;-79
2022/09/21 03:03:34;;;;;;;11.88;6.72;;;;;;;6.88;100.00;102637.69;6097767;23;20006;-80
2022/09/21 03:06:01;;;;;;;12.10;7.43;;;;;;;6.67;100.00;102602.16;6097063;23;20122;-79
2022/09/21 03:08:26;;;;;;;10.75;6.55;;;;;;;6.78;100.00;102641.31;6097528;23;20441;-79
2022/09/21 03:10:52;;;;;;;11.40;7.20;;;;;;;6.74;100.00;102639.69;6097442;23;20007;-79
2022/09/21 03:13:18;;;;;;;11.90;6.28;;;;;;;6.57;100.00;102615.16;6097298;23;20017;-79
2022/09/21 03:15:44;;;;;;;11.57;6.85;;;;;;;6.67;100.00;102640.66;6097286;23;20341;-79
2022/09/21 03:18:10;;;;;;;10.68;6.28;;;;;;;6.58;100.00;102639.94;6097272;23;20074;-80
2022/09/21 03:20:38;;;;;;;11.15;6.35;;;;;;;6.27;100.00;102597.72;6097312;23;20007;-78
2022/09/21 03:23:03;;;;;;;10.35;6.70;;;;;;;6.50;100.00;102643.53;6097262;23;20016;-78
2022/09/21 03:25:29;;;;;;;11.85;6.90;;;;;;;6.46;100.00;102650.41;6097309;23;20015;-79
2022/09/21 03:27:55;;;;;;;12.77;6.70;;;;;;;6.29;100.00;102621.63;6097274;23;20010;-79
2022/09/21 03:30:22;;;;;;;10.95;6.93;;;;;;;6.38;100.00;102643.72;6097566;23;20077;-79
2022/09/21 03:32:49;;;;;;;10.43;6.90;;;;;;;6.19;100.00;102627.75;6097193;23;20006;-79
2022/09/21 03:35:15;;;;;;;10.77;6.80;;;;;;;6.36;100.00;102653.16;6097158;23;19999;-79
2022/09/21 03:37:40;;;;;;;11.77;7.28;;;;;;;6.18;100.00;102628.63;6097356;23;20361;-79
2022/09/21 03:40:06;;;;;;;13.07;7.30;;;;;;;6.27;100.00;102652.44;6097361;23;20010;-77
2022/09/21 03:42:32;;;;;;;12.63;7.10;;;;;;;6.24;100.00;102651.66;6097476;23;20006;-79
2022/09/21 03:44:57;;;;;;;9.65;6.35;;;;;;;6.01;100.00;102618.66;6071148;23;20010;-80
2022/09/21 03:47:22;;;;;;;10.52;6.88;;;;;;;5.92;100.00;102622.22;6071586;23;20038;-80
2022/09/21 03:49:47;;;;;;;10.43;6.85;;;;;;;6.09;100.00;102645.00;6097139;23;20435;-79
2022/09/21 03:52:13;;;;;;;11.02;7.00;;;;;;;6.07;100.00;102648.47;6097001;23;20305;-77
2022/09/21 03:54:38;;;;;;;12.43;7.72;;;;;;;6.11;100.00;102662.97;6097401;23;20077;-79
2022/09/21 03:57:03;;;;;;;12.13;7.13;;;;;;;6.07;100.00;102653.63;6096960;23;20002;-78
2022/09/21 03:59:29;;;;;;;9.15;6.63;;;;;;;6.02;100.00;102659.66;6097171;23;20013;-79
2022/09/21 04:01:54;;;;;;;11.60;6.93;;;;;;;5.85;100.00;102635.94;6096929;23;20021;-78
2022/09/21 04:04:20;;;;;;;9.70;6.10;;;;;;;5.96;100.00;102654.63;6097229;23;20014;-79
2022/09/21 04:06:45;;;;;;;12.25;6.30;;;;;;;5.74;100.00;102628.41;6097079;23;20007;-79
2022/09/21 04:09:11;;;;;;;8.80;6.18;;;;;;;5.92;100.00;102655.53;6096881;23;20015;-79
2022/09/21 04:11:38;;;;;;;9.60;6.25;;;;;;;5.85;100.00;102648.78;6096924;23;20017;-79
2022/09/21 04:14:06;;;;;;;9.10;6.00;;;;;;;5.86;100.00;102647.06;6072168;23;20006;-75
2022/09/21 04:16:35;;;;;;;10.68;6.25;;;;;;;5.83;100.00;102653.06;6097378;23;20011;-79
2022/09/21 04:19:00;;;;;;;9.50;6.13;;;;;;;5.82;100.00;102645.41;6097001;23;20356;-79
2022/09/21 04:21:25;;;;;;;10.45;6.28;;;;;;;5.81;100.00;102644.56;6096703;23;20081;-79
2022/09/21 04:23:51;;;;;;;8.82;5.65;;;;;;;5.77;100.00;102650.59;6096931;23;20012;-79
2022/09/21 04:26:25;;;;;;;10.15;5.70;;;;;;;5.70;100.00;102656.66;6097734;23;20010;-77
2022/09/21 04:28:51;;;;;;;8.75;6.05;;;;;;;5.72;100.00;102654.94;6098824;23;20002;-79
2022/09/21 04:31:17;;;;;;;10.00;6.07;;;;;;;5.68;100.00;102658.41;6099015;23;20053;-80
2022/09/21 04:33:42;;;;;;;8.98;5.75;;;;;;;5.63;100.00;102652.50;6099364;23;20029;-79
2022/09/21 04:36:07;;;;;;;9.20;5.97;;;;;;;5.60;100.00;102652.53;6099123;23;20013;-79
2022/09/21 04:38:33;;;;;;;7.78;5.63;;;;;;;5.61;100.00;102664.50;6098832;23;20010;-79
2022/09/21 04:40:58;;;;;;;7.65;5.30;;;;;;;5.36;100.00;102626.34;6098895;23;20007;-79
2022/09/21 04:43:24;;;;;;;10.90;5.57;;;;;;;5.47;100.00;102649.28;6098816;23;20006;-79
2022/09/21 04:45:50;;;;;;;8.10;5.03;;;;;;;5.56;100.00;102672.22;6098890;23;20009;-79
2022/09/21 04:48:15;;;;;;;9.35;6.15;;;;;;;5.44;100.00;102657.84;6099337;23;20325;-79
2022/09/21 04:50:40;;;;;;;9.27;5.50;;;;;;;5.51;100.00;102673.16;6098692;23;20321;-79
2022/09/21 04:53:06;;;;;;;9.50;5.40;;;;;;;5.36;100.00;102651.97;6072620;23;20013;-77
2022/09/21 04:55:31;;;;;;;8.52;5.45;;;;;;;5.46;100.00;102671.50;6098816;23;20006;-77
2022/09/21 04:57:56;;;;;;;8.55;5.70;;;;;;;5.45;100.00;102672.34;6098352;23;20014;-79
2022/09/21 05:00:22;;;;;;;9.25;5.53;;;;;;;5.30;100.00;102654.59;6098910;23;20018;-76
2022/09/21 05:02:47;;;;;;;9.60;5.65;;;;;;;5.41;100.00;102677.56;6071888;23;20337;-78
2022/09/21 05:05:13;;;;;;;8.23;5.50;;;;;;;5.35;100.00;102675.91;6098915;23;20106;-79
2022/09/21 05:07:38;;;;;;;8.55;5.28;;;;;;;5.26;100.00;102655.50;6098542;23;20081;-76
2022/09/21 05:10:04;;;;;;;8.05;5.35;;;;;;;5.38;100.00;102680.13;6098280;23;20006;-77
2022/09/21 05:12:33;;;;;;;9.27;5.22;;;;;;;5.25;100.00;102664.06;6098667;23;20366;-76
2022/09/21 05:14:59;;;;;;;9.10;5.28;;;;;;;5.24;100.00;102662.38;6098715;23;20006;-76
2022/09/21 05:17:24;;;;;;;12.20;5.88;;;;;;;5.22;100.00;102659.00;6098892;23;20030;-75
2022/09/21 05:19:51;;;;;;;9.10;5.78;;;;;;;5.34;100.00;102688.72;6098659;23;20049;-76
2022/09/21 05:22:16;;;;;;;10.45;5.78;;;;;;;5.34;100.00;102684.44;6098305;23;20217;-75
2022/09/21 05:24:42;;;;;;;8.75;5.82;;;;;;;5.18;100.00;102657.31;6098268;23;20451;-76
2022/09/21 05:27:07;;;;;;;10.75;5.93;;;;;;;5.32;100.00;102688.75;6098448;23;19998;-76
2022/09/21 05:29:33;;;;;;;10.27;6.28;;;;;;;5.19;100.00;102662.41;6098433;23;20017;-77
2022/09/21 05:32:10;;;;;;;12.45;6.47;;;;;;;5.34;100.00;102688.72;6098354;23;20006;-76
2022/09/21 05:34:56;;;;;;;10.05;6.45;;;;;;;5.36;100.00;102695.53;6098599;23;20418;-76
2022/09/21 05:37:50;;;;;;;9.82;6.70;;;;;;;5.37;100.00;102693.81;6097976;23;20018;-76
2022/09/21 05:40:16;;;;;;;10.65;7.03;;;;;;;5.27;100.00;102676.84;6098251;23;20006;-79
2022/09/21 05:42:42;;;;;;;11.68;7.10;;;;;;;5.42;100.00;102704.88;6048940;23;20054;-77
2022/09/21 05:45:13;;;;;;;11.73;7.32;;;;;;;5.25;100.00;102678.59;6098384;23;20321;-77
2022/09/21 05:47:51;;;;;;;12.07;8.23;;;;;;;5.50;100.00;102712.44;6097118;23;20009;-74
2022/09/21 05:50:41;;;;;;;12.02;7.68;;;;;;;5.53;100.00;102710.72;6098632;23;20089;-77
2022/09/21 05:53:29;;;;;;;10.68;7.25;;;;;;;5.41;100.00;102680.13;6097796;23;20018;-74
2022/09/21 05:56:02;;;;;;;17.42;7.93;;;;;;;5.57;100.00;102704.66;6098103;23;20013;-76
2022/09/21 05:58:51;;;;;;;12.88;7.47;;;;;;;5.53;100.00;102689.38;6097767;23;20024;-75
2022/09/21 06:01:26;;;;;;;12.27;8.20;;;;;;;5.69;100.00;102706.22;6098724;23;20014;-76
2022/09/21 06:03:52;;;;;;;15.65;7.68;;;;;;;5.66;100.00;102706.28;6098499;23;20014;-76
2022/09/21 06:06:19;;;;;;;12.15;8.15;;;;;;;5.76;100.00;102715.53;6097924;23;20325;-76
2022/09/21 06:08:44;;;;;;;13.00;7.72;;;;;;;5.78;100.00;102711.25;6097874;23;20049;-77
2022/09/21 06:11:10;;;;;;;11.23;7.95;;;;;;;5.84;100.00;102718.88;6097848;23;20441;-73
2022/09/21 06:13:36;;;;;;;13.10;8.05;;;;;;;5.88;100.00;102717.94;6098343;23;20029;-76
2022/09/21 06:16:02;;;;;;;12.00;7.60;;;;;;;5.93;100.00;102710.25;6072998;23;20065;-75
2022/09/21 06:18:27;;;;;;;11.13;7.18;;;;;;;6.00;100.00;102722.13;6097741;23;19999;-76
2022/09/21 06:20:52;;;;;;;17.00;8.07;;;;;;;6.08;100.00;102724.56;6097991;23;20034;-76
2022/09/21 06:23:18;;;;;;;13.70;8.15;;;;;;;6.09;100.00;102713.41;6096257;23;20377;-73
2022/09/21 06:25:43;;;;;;;11.60;8.00;;;;;;;6.15;100.00;102705.66;6097622;23;20007;-74
2022/09/21 06:28:11;;;;;;;11.30;7.50;;;;;;;6.33;100.00;102710.50;6097855;23;20002;-73
2022/09/21 06:30:39;;;;;;;13.90;8.02;;;;;;;6.39;100.00;102684.78;6097546;23;20002;-76
2022/09/21 06:33:05;;;;;;;16.15;8.52;;;;;;;7.38;100.00;102716.41;6097914;23;20061;-74
2022/09/21 06:35:33;;;;;;;14.75;8.75;;;;;;;8.89;100.00;102718.16;6097882;23;19998;-74
2022/09/21 06:37:59;;;;;;;10.85;7.43;;;;;;;10.44;92.85;102701.66;6097341;23;20010;-77
2022/09/21 06:40:26;;;;;;;11.82;7.63;;;;;;;11.75;83.66;102696.16;6097490;23;20364;-79
2022/09/21 06:43:03;;;;;;;12.52;6.63;;;;;;;12.87;81.55;102710.63;6097611;23;20473;-75
2022/09/21 06:45:29;;;;;;;10.27;6.28;;;;;;;13.69;74.62;102716.56;6097732;23;20003;-77
2022/09/21 06:47:55;;;;;;;9.30;6.00;;;;;;;14.42;73.36;102709.63;6097659;23;20085;-78
2022/09/21 06:50:21;;;;;;;12.77;5.78;;;;;;;14.92;69.94;102691.50;6097169;23;20044;-80
2022/09/21 06:52:46;;;;;;;13.65;7.20;;;;;;;15.33;68.88;102706.69;6097519;23;20006;-77
2022/09/21 06:55:13;;;;;;;12.77;6.90;;;;;;;14.43;70.19;102701.75;6097482;23;20021;-77
2022/09/21 06:57:38;;;;;;;13.13;6.88;;;;;;;13.37;73.71;102689.44;6097499;23;20440;-78
2022/09/21 07:00:07;;;;;;;11.02;6.43;;;;;;;12.56;76.97;102716.25;6097864;23;20010;-77
2022/09/21 07:02:33;;;;;;;14.00;7.40;;;;;;;11.75;79.90;102701.31;6097115;23;20010;-77
2022/09/21 07:04:59;;;;;;;18.55;8.77;;;;;;;11.24;83.64;102702.34;6097493;23;20007;-81
2022/09/21 07:07:25;;;;;;;14.10;7.47;;;;;;;10.94;85.47;102722.38;6097610;23;20006;-79
2022/09/21 07:09:51;;;;;;;16.30;8.38;;;;;;;10.65;88.21;102719.91;6071039;23;20055;-80
2022/09/21 07:12:19;;;;;;;19.48;8.45;;;;;;;10.40;90.19;102723.28;6097739;23;20013;-81
2022/09/21 07:14:45;;;;;;;15.63;7.90;;;;;;;10.05;91.30;102698.56;6097502;23;20029;-84
2022/09/21 07:17:13;;;;;;;16.75;8.45;;;;;;;10.01;93.10;102710.69;6097568;23;20413;-84
2022/09/21 07:19:38;;;;;;;13.77;7.03;;;;;;;9.73;93.83;102673.69;6097843;23;20003;-82
2022/09/21 07:22:03;;;;;;;15.93;7.85;;;;;;;9.94;94.92;102719.53;6097606;23;20310;-80
2022/09/21 07:24:29;;;;;;;12.32;6.95;;;;;;;9.78;95.45;102703.66;6096922;23;20484;-83
2022/09/21 07:26:54;;;;;;;13.73;7.90;;;;;;;9.93;96.32;102728.16;6097881;23;20082;-78
2022/09/21 07:29:35;;;;;;;13.25;6.80;;;;;;;8.96;96.33;102569.41;6096751;23;20011;-81
2022/09/21 07:32:00;;;;;;;12.57;7.82;;;;;;;9.97;96.62;102722.00;6071155;23;20018;-81
2022/09/21 07:34:40;;;;;;;12.52;6.72;;;;;;;9.54;95.91;102646.75;6097184;23;20007;-80
2022/09/21 07:37:15;;;;;;;12.98;6.15;;;;;;;9.39;96.61;102617.97;6096376;23;20100;-81
2022/09/21 07:39:40;;;;;;;13.00;5.93;;;;;;;10.09;95.82;102719.94;6096939;23;20006;-81
2022/09/21 07:42:06;;;;;;;13.70;6.10;;;;;;;10.12;95.44;102712.09;6097145;23;20017;-81
2022/09/21 07:44:31;;;;;;;10.20;5.28;;;;;;;10.16;95.32;102718.88;6097002;23;20049;-81
2022/09/21 07:46:57;;;;;;;11.93;6.10;;;;;;;10.22;96.45;102714.38;6097305;23;20006;-81
2022/09/21 07:49:22;;;;;;;14.45;6.20;;;;;;;10.28;95.49;102713.34;6070906;23;20105;-81
2022/09/21 07:51:47;;;;;;;11.27;4.95;;;;;;;10.36;95.87;102715.69;6097226;23;20332;-81
2022/09/21 07:54:14;;;;;;;12.35;6.40;;;;;;;10.41;94.65;102718.97;6097244;23;20085;-80
2022/09/21 07:56:41;;;;;;;16.90;7.07;;;;;;;10.33;94.97;102688.25;6071590;23;20034;-81
2022/09/21 07:59:06;;;;;;;13.60;6.72;;;;;;;10.55;95.24;102714.22;6097009;23;20006;-81
2022/09/21 08:01:39;;;;;;;12.32;5.95;;;;;;;10.51;93.91;102699.69;6097033;23;20007;-80
2022/09/21 08:04:07;;;;;;;14.52;5.93;;;;;;;10.57;94.72;102690.00;6097012;23;20041;-80
2022/09/21 08:06:35;;;;;;;11.70;5.28;;;;;;;10.75;94.13;102711.81;6071664;23;20429;-81
2022/09/21 08:09:01;;;;;;;9.27;5.25;;;;;;;10.71;93.46;102701.59;6072254;23;20018;-80
2022/09/21 08:11:29;;;;;;;12.38;5.25;;;;;;;10.86;93.66;102706.28;6097028;23;20014;-81
2022/09/21 08:13:56;;;;;;;18.20;6.18;;;;;;;10.92;92.70;102711.25;6096880;23;20002;-80
2022/09/21 08:16:22;;;;;;;10.75;4.97;;;;;;;11.01;91.37;102708.34;6097054;23;20464;-81
2022/09/21 08:18:47;;;;;;;11.07;5.40;;;;;;;10.99;92.05;102688.59;6070894;23;20006;-80
2022/09/21 08:21:12;;;;;;;9.95;4.72;;;;;;;11.12;90.95;102711.38;6096842;23;20006;-81
2022/09/21 08:23:42;;;;;;;10.02;4.85;;;;;;;10.89;90.27;102663.06;6097314;23;20313;-81
2022/09/21 08:26:10;;;;;;;10.68;4.78;;;;;;;11.02;89.58;102673.84;6097080;23;20010;-81
2022/09/21 08:28:36;;;;;;;12.00;4.93;;;;;;;11.31;90.76;102713.34;6097030;23;20081;-80
2022/09/21 08:31:09;;;;;;;11.48;5.20;;;;;;;11.30;91.93;102701.28;6096934;23;20045;-80
2022/09/21 08:33:35;;;;;;;9.30;4.70;;;;;;;11.25;89.87;102687.69;6096919;23;20002;-81
2022/09/21 08:36:01;;;;;;;7.95;3.90;;;;;;;11.35;89.75;102681.28;6096804;23;20014;-81
2022/09/21 08:38:32;;;;;;;8.50;3.42;;;;;;;11.62;86.52;102718.22;6097294;23;20034;-80
2022/09/21 08:41:00;;;;;;;10.40;3.60;;;;;;;11.43;86.88;102674.91;6096694;23;20007;-80
2022/09/21 08:43:37;;;;;;;6.75;2.72;;;;;;;11.44;86.15;102665.41;6070772;23;20034;-81
2022/09/21 08:46:08;;;;;;;9.82;3.88;;;;;;;11.70;85.84;102704.09;6097164;23;20010;-79
2022/09/21 08:48:39;;;;;;;7.85;3.25;;;;;;;11.49;87.10;102664.31;6097157;23;20018;-80
2022/09/21 08:51:09;;;;;;;11.63;3.80;;;;;;;11.91;85.44;102728.34;6096712;23;20425;-81
2022/09/21 08:53:39;;;;;;;14.23;4.47;;;;;;;11.98;85.03;102724.59;6070905;23;20011;-81
2022/09/21 08:56:05;;;;;;;8.98;4.18;;;;;;;12.03;84.06;102729.63;6096906;23;20006;-81
2022/09/21 08:58:31;;;;;;;11.45;3.63;;;;;;;12.01;82.95;102721.06;6097166;23;20416;-81
2022/09/21 09:01:21;;;;;;;10.65;3.90;;;;;;;12.07;83.97;102726.00;6097013;23;20006;-81
2022/09/21 09:03:53;;;;;;;8.88;3.88;;;;;;;12.16;81.69;102729.97;6096639;23;20133;-80
2022/09/21 09:06:35;;;;;;;9.35;3.75;;;;;;;12.20;81.20;102727.22;6096895;23;20433;-80
2022/09/21 09:09:32;;;;;;;8.13;3.58;;;;;;;12.24;83.58;102722.75;6096841;23;20375;-80
2022/09/21 09:12:16;;;;;;;8.80;3.75;;;;;;;12.27;83.07;102717.44;6097018;23;20386;-80
2022/09/21 09:14:55;;;;;;;9.35;4.68;;;;;;;12.50;82.61;102729.50;6073022;23;20006;-81
2022/09/21 09:17:42;;;;;;;9.93;4.00;;;;;;;12.57;81.46;102734.34;6098453;23;20425;-81
2022/09/21 09:20:33;;;;;;;10.30;4.15;;;;;;;12.55;81.02;102730.97;6098488;23;20006;-80
2022/09/21 09:23:20;;;;;;;10.82;3.90;;;;;;;12.61;79.47;102740.25;6098609;23;20002;-81
2022/09/21 09:25:49;;;;;;;11.27;3.58;;;;;;;12.65;79.09;102741.81;6098626;23;20002;-80
2022/09/21 09:28:21;;;;;;;7.78;3.17;;;;;;;12.73;79.04;102733.72;6098512;23;20007;-81
2022/09/21 09:30:51;;;;;;;8.98;3.53;;;;;;;12.81;78.43;102732.50;6098362;23;20002;-81
2022/09/21 09:33:23;;;;;;;9.32;3.33;;;;;;;12.60;76.78;102708.31;6098448;23;20451;-80
2022/09/21 09:35:57;;;;;;;9.18;3.45;;;;;;;12.58;76.69;102697.16;6098704;23;20030;-80
2022/09/21 09:38:35;;;;;;;4.93;2.60;;;;;;;12.91;75.34;102735.53;6098485;23;20009;-80
2022/09/21 09:41:16;;;;;;;8.05;2.60;;;;;;;12.98;73.77;102739.56;6097931;23;20006;-80
2022/09/21 09:44:03;;;;;;;6.75;2.90;;;;;;;13.06;75.48;102739.22;6098276;23;20491;-80
2022/09/21 09:47:03;;;;;;;10.63;3.15;;;;;;;13.07;74.45;102744.34;6098620;23;20010;-80
2022/09/21 09:50:13;;;;;;;5.97;2.78;;;;;;;13.17;75.03;102743.06;6098225;23;20009;-80
2022/09/21 09:52:39;;;;;;;7.93;2.50;;;;;;;13.20;72.09;102731.75;5953705;24;20015;-80
2022/09/21 09:55:16;;;;;;;4.93;1.85;;;;;;;13.36;73.53;102740.50;5953924;24;20012;-80
2022/09/21 09:57:42;;;;;;;6.35;2.10;;;;;;;13.34;73.25;102747.53;5953725;24;20087;-79
2022/09/21 10:00:13;;;;;;;8.32;2.20;;;;;;;13.24;72.17;102745.41;5953814;24;20089;-80
2022/09/21 10:03:13;;;;;;;6.40;2.08;;;;;;;13.13;75.07;102741.50;5953790;23;20020;-80
2022/09/21 10:05:40;;;;;;;8.50;2.45;;;;;;;13.15;73.74;102744.03;5953656;24;20017;-80
2022/09/21 10:08:27;;;;;;;5.47;1.85;;;;;;;13.10;74.01;102722.63;5953991;24;20032;-80
2022/09/21 10:10:52;;;;;;;10.65;2.10;;;;;;;13.35;72.54;102746.63;5953823;24;20103;-79
2022/09/21 10:13:20;;;;;;;6.43;1.73;;;;;;;13.46;72.32;102746.97;5953423;24;20013;-80
2022/09/21 10:15:52;;;;;;;8.77;2.40;;;;;;;13.55;71.75;102739.69;5953764;24;20435;-80
2022/09/21 10:18:33;;;;;;;5.30;1.92;;;;;;;13.67;71.13;102741.75;5953836;24;20008;-80
2022/09/21 10:21:00;;;;;;;7.55;1.60;;;;;;;13.82;69.18;102741.03;5953481;24;20346;-80
2022/09/21 10:23:27;;;;;;;10.10;1.90;;;;;;;13.95;68.26;102731.75;5953233;24;20049;-80
2022/09/21 10:26:06;;;;;;;4.35;1.70;;;;;;;14.00;67.51;102719.41;5953637;24;20020;-81
2022/09/21 10:28:32;;;;;;;6.35;1.98;;;;;;;14.28;67.91;102721.53;5975114;23;20083;-80
2022/09/21 10:31:22;;;;;;;7.65;1.92;;;;;;;14.45;69.23;102718.13;6097951;23;20007;-80
2022/09/21 10:33:50;;;;;;;9.98;2.38;;;;;;;14.57;66.53;102727.94;6097698;23;20013;-80
2022/09/21 10:36:34;;;;;;;8.68;1.85;;;;;;;14.66;68.12;102726.66;6072215;23;20421;-81
2022/09/21 10:39:32;;;;;;;4.70;1.52;;;;;;;14.68;68.38;102723.97;6072818;23;20079;-81
2022/09/21 10:42:06;;;;;;;5.28;1.73;;;;;;;14.71;64.87;102724.66;5980893;24;20062;-80
2022/09/21 10:44:38;;;;;;;8.35;1.58;;;;;;;14.78;62.75;102717.38;5981481;24;20355;-80
2022/09/21 10:47:29;;;;;;;7.50;1.50;;;;;;;14.84;63.98;102722.25;5981060;24;20018;-80
2022/09/21 10:49:57;;;;;;;3.85;1.30;;;;;;;14.95;61.70;102711.34;5981437;24;20012;-80
2022/09/21 10:52:30;;;;;;;5.85;1.58;;;;;;;14.83;61.65;102674.59;5981232;24;20040;-80
2022/09/21 10:54:56;;;;;;;5.28;1.75;;;;;;;15.26;59.74;102716.63;5981313;24;20020;-80
2022/09/21 10:57:23;;;;;;;2.60;1.40;;;;;;;15.20;59.25;102675.28;5981181;24;20012;-80
2022/09/21 10:59:49;;;;;;;5.97;1.13;;;;;;;15.42;56.28;102672.38;5981194;24;20012;-80
2022/09/21 11:02:35;;;;;;;5.53;1.17;;;;;;;15.55;55.62;102662.16;5980992;24;20011;-80
2022/09/21 11:05:08;;;;;;;5.82;1.23;;;;;;;15.60;50.64;102670.53;5980724;24;20024;-81
2022/09/21 11:07:42;;;;;;;4.30;0.82;;;;;;;15.80;52.54;102705.94;5981199;24;20023;-80
2022/09/21 11:10:29;;;;;;;3.25;1.20;;;;;;;15.72;54.67;102706.34;5980939;24;20012;-80
2022/09/21 11:13:11;;;;;;;3.85;1.00;;;;;;;15.65;54.71;102710.25;5980871;24;20366;-82
2022/09/21 11:15:42;;;;;;;7.80;1.38;;;;;;;15.64;56.16;102708.56;5980791;24;20335;-81
2022/09/21 11:18:29;;;;;;;5.43;1.52;;;;;;;15.35;56.74;102666.69;6032113;23;20424;-81
2022/09/21 11:21:04;;;;;;;5.68;1.60;;;;;;;15.60;56.55;102707.00;6097793;23;20042;-83
2022/09/21 11:23:32;;;;;;;4.47;1.20;;;;;;;15.56;55.86;102708.94;6097394;23;20066;-83
2022/09/21 11:26:23;;;;;;;6.05;1.20;;;;;;;15.55;58.64;102703.81;6097249;23;20003;-83
2022/09/21 11:29:14;;;;;;;3.95;1.30;;;;;;;15.25;59.27;102664.66;6097533;23;20340;-82
2022/09/21 11:32:02;;;;;;;6.10;1.60;;;;;;;15.20;58.87;102686.53;6080808;23;20037;-83
2022/09/21 11:35:05;;;;;;;7.13;1.33;;;;;;;15.15;58.43;102700.72;6095802;23;20447;-80
2022/09/21 11:37:54;;;;;;;5.63;1.50;;;;;;;14.91;59.97;102702.81;6097207;23;20428;-80